METAR AND TAF INFORMATION
METAR FOR LTAT
ADDS - METARS form results

(1016 UTC 22 February 2019)
Data provider http://aviationweather.gov/metar/data/
 
METAR text: LTAT 220950Z VRB04KT 9999 FEW040 10/M00 Q1019 NOSIG RMK RWY03 VRB03KT
Conditions at: LTAT (MALATYA/ERHAC (A, TR) observed 0950 UTC 22 February 2019
Temperature: 10.0°C (50°F)
Dewpoint: 0.0°C (32°F) [RH = 50%]
Pressure (altimeter): 30.09 inches Hg (1019.0 mb)
Winds: variable direction winds at 5 MPH (4 knots; 2.1 m/s)
Visibility: 6 or more miles (10+ km)
Ceiling: at least 12,000 feet AGL
Clouds: few clouds at 4000 feet AGL
Weather: no significant weather observed at this time

METAR text: LTAT 220920Z 31003KT 9999 FEW040 10/00 Q1019 NOSIG RMK RWY03 01003KT 270V060
Conditions at: LTAT (MALATYA/ERHAC (A, TR) observed 0920 UTC 22 February 2019
Temperature: 10.0°C (50°F)
Dewpoint: 0.0°C (32°F) [RH = 50%]
Pressure (altimeter): 30.09 inches Hg (1019.0 mb)
Winds: from the NW (310 degrees) at 3 MPH (3 knots; 1.5 m/s)
Visibility: 6 or more miles (10+ km)
Ceiling: at least 12,000 feet AGL
Clouds: few clouds at 4000 feet AGL
Weather: no significant weather observed at this time

Forecast for: LTAT (MALATYA/ERHAC (A, TR)
Text: TAF LTAT 220440Z 2206/2306 21007KT 9999 SCT040 BKN100
Forecast period: 0600 UTC 22 February 2019 to 0600 UTC 23 February 2019
Forecast type: FROM: standard forecast or significant change
Winds: from the SSW (210 degrees) at 8 MPH (7 knots; 3.6 m/s)
Visibility: 6 or more miles 10+ km)
Ceiling: 10000 feet AGL
Clouds: scattered clouds at 4000 feet AGL
broken clouds at 10000 feet AGL
Weather: no significant weather forecast for this period
Text: PROB30
Forecast period: 1200 to 1600 UTC 22 February 2019
Forecast type: TEMPORARY: The following changes expected for less than half the time period
Visibility: missing
Ceiling: 3500 feet AGL
Clouds: broken clouds at 3500 feet AGL
overcast cloud deck at 9000 feet AGL
Weather: -RA  (light rain)

 AIRPORT MAP

 RUNWAY INFORMATION
Runway 03 Runway length 10990 ft Runway width 148 ft
Runway elevation 2828 ft Runway displaced threshold 0 ft Runway heading 31
Runway 21 Runway length 10990 ft Runway width 148 ft
Runway elevation 2757 ft Runway displaced threshold 0 ft Runway heading 211

 AIRPORT FREQUENCIES
Type APP Name APP Frequency 122.1 MHZ
Type ATIS Name ATIS Frequency 128.35 MHZ
Type GND Name GND Frequency 121.95 MHZ
Type TWR Name TWR Frequency 122.1 MHZ

 AIRPORT NEAR NAVIGATION AIDS
Type NDB Name Erhac Frequency 421 KHZ
Type VOR Name Malatya Frequency 112000 KHZ
Type TACAN Name Erhac Frequency 113500 KHZ